createdAt,value
2019-04-20T00:02:14.369Z,16.50
2019-04-20T00:06:17.563Z,16.30
2019-04-20T00:10:24.693Z,16.30
2019-04-20T00:14:33.866Z,16.20
2019-04-20T00:18:42.967Z,16.20
2019-04-20T00:22:59.760Z,16.10
2019-04-20T00:27:28.474Z,16.00
2019-04-20T00:31:29.751Z,15.90
2019-04-20T00:35:20.965Z,15.80
2019-04-20T00:39:27.889Z,15.80
2019-04-20T00:43:37.312Z,15.70
2019-04-20T00:47:50.102Z,15.60
2019-04-20T00:52:18.746Z,15.60
2019-04-20T00:55:57.046Z,15.50
2019-04-20T01:00:22.897Z,15.40
2019-04-20T01:04:34.590Z,15.30
2019-04-20T01:08:27.461Z,15.20
2019-04-20T01:12:36.815Z,15.10
2019-04-20T01:16:47.059Z,15.10
2019-04-20T01:20:47.882Z,15.00
2019-04-20T01:24:54.960Z,14.80
2019-04-20T01:29:15.889Z,14.80
2019-04-20T01:33:24.342Z,14.60
2019-04-20T01:37:31.716Z,14.60
2019-04-20T01:41:24.349Z,14.50
2019-04-20T01:45:36.260Z,14.40
2019-04-20T01:49:41.843Z,14.30
2019-04-20T01:54:06.710Z,14.20
2019-04-20T01:58:36.444Z,14.20
2019-04-20T02:02:35.526Z,14.10
2019-04-20T02:06:48.116Z,14.00
2019-04-20T02:10:53.717Z,13.90
2019-04-20T02:15:00.724Z,13.90
2019-04-20T02:19:19.597Z,13.80
2019-04-20T02:23:21.193Z,13.80
2019-04-20T02:27:20.572Z,13.70
2019-04-20T02:36:21.068Z,13.50
2019-04-20T02:40:32.857Z,13.50
2019-04-20T02:44:30.581Z,13.40
2019-04-20T02:48:42.701Z,13.40
2019-04-20T02:53:05.486Z,13.30
2019-04-20T02:56:57.562Z,13.30
2019-04-20T03:00:52.388Z,13.20
2019-04-20T03:04:45.277Z,13.10
2019-04-20T03:09:09.101Z,13.10
2019-04-20T03:13:17.117Z,13.00
2019-04-20T03:17:25.650Z,13.00
2019-04-20T03:21:27.284Z,12.90
2019-04-20T03:25:55.274Z,12.90
2019-04-20T03:30:22.763Z,12.90
2019-04-20T03:34:47.457Z,12.80
2019-04-20T03:38:30.197Z,12.70
2019-04-20T03:42:14.117Z,12.60
2019-04-20T03:46:30.088Z,12.60
2019-04-20T03:50:46.777Z,12.50
2019-04-20T03:55:15.065Z,12.50
2019-04-20T03:59:34.644Z,12.40
2019-04-20T04:04:09.483Z,12.40
2019-04-20T04:08:06.180Z,12.30
2019-04-20T04:12:44.550Z,12.20
2019-04-20T04:16:53.797Z,12.20
2019-04-20T04:21:01.922Z,12.10
2019-04-20T04:25:18.339Z,12.10
2019-04-20T04:29:34.631Z,12.00
2019-04-20T04:33:53.161Z,12.00
2019-04-20T04:37:51.403Z,11.90
2019-04-20T04:42:02.146Z,11.90
2019-04-20T04:45:40.565Z,11.80
2019-04-20T04:49:55.372Z,11.80
2019-04-20T04:54:01.789Z,11.70
2019-04-20T04:58:02.404Z,11.60
2019-04-20T05:02:08.030Z,11.60
2019-04-20T05:06:35.657Z,11.60
2019-04-20T05:10:26.977Z,11.50
2019-04-20T05:14:45.325Z,11.50
2019-04-20T05:19:07.723Z,11.40
2019-04-20T05:23:20.821Z,11.40
2019-04-20T05:27:44.174Z,11.40
2019-04-20T05:31:30.903Z,11.40
2019-04-20T05:35:58.929Z,11.30
2019-04-20T05:40:07.703Z,11.30
2019-04-20T05:44:25.975Z,11.30
2019-04-20T05:48:38.160Z,11.30
2019-04-20T05:52:50.972Z,11.50
2019-04-20T05:56:53.877Z,12.30
2019-04-20T06:01:06.767Z,13.00
2019-04-20T06:05:08.489Z,13.60
2019-04-20T06:09:16.573Z,14.40
2019-04-20T06:13:30.003Z,15.30
2019-04-20T06:18:13.823Z,15.00
2019-04-20T06:23:00.008Z,14.60
2019-04-20T06:27:00.882Z,14.90
2019-04-20T06:30:56.921Z,15.80
2019-04-20T06:35:18.951Z,16.10
2019-04-20T06:39:20.411Z,14.90
2019-04-20T06:43:25.479Z,15.70
2019-04-20T06:47:41.873Z,15.90
2019-04-20T06:51:47.656Z,15.60
2019-04-20T06:56:04.326Z,15.40
2019-04-20T07:00:07.363Z,15.40
2019-04-20T07:04:33.313Z,15.50
2019-04-20T07:08:33.371Z,15.00
2019-04-20T07:12:27.262Z,16.40
2019-04-20T07:17:00.137Z,15.80
2019-04-20T07:21:13.853Z,15.40
2019-04-20T07:25:19.188Z,15.30
2019-04-20T07:29:40.742Z,15.90
2019-04-20T07:33:46.815Z,16.50
2019-04-20T07:42:00.392Z,16.70
2019-04-20T07:46:10.477Z,17.20
2019-04-20T07:50:07.696Z,17.50
2019-04-20T07:54:33.173Z,17.40
2019-04-20T07:58:23.053Z,17.00
2019-04-20T08:02:58.715Z,17.20
2019-04-20T08:06:48.769Z,17.00
2019-04-20T08:11:10.311Z,17.60
2019-04-20T08:15:30.065Z,17.40
2019-04-20T08:19:23.377Z,17.30
2019-04-20T08:23:35.959Z,17.60
2019-04-20T08:27:27.566Z,18.00
2019-04-20T08:31:56.239Z,18.00
2019-04-20T08:36:12.255Z,18.50
2019-04-20T08:40:11.967Z,18.50
2019-04-20T08:44:42.219Z,18.50
2019-04-20T08:48:31.366Z,18.20
2019-04-20T08:53:01.267Z,18.60
2019-04-20T08:56:31.799Z,18.90
2019-04-20T09:00:33.155Z,18.50
2019-04-20T09:04:45.157Z,18.30
2019-04-20T09:08:55.505Z,18.90
2019-04-20T09:13:03.978Z,18.90
2019-04-20T09:17:32.587Z,19.50
2019-04-20T09:21:43.629Z,19.60
2019-04-20T09:26:00.385Z,20.20
2019-04-20T09:30:07.764Z,20.30
2019-04-20T09:34:26.137Z,20.00
2019-04-20T09:38:34.810Z,20.30
2019-04-20T09:42:32.618Z,20.30
2019-04-20T09:46:44.249Z,20.30
2019-04-20T09:51:02.373Z,20.10
2019-04-20T09:55:07.853Z,20.70
2019-04-20T09:59:25.214Z,21.40
2019-04-20T10:03:10.743Z,19.90
2019-04-20T10:07:21.373Z,20.90
2019-04-20T10:11:23.713Z,21.30
2019-04-20T10:15:30.995Z,21.60
2019-04-20T10:19:39.433Z,21.30
2019-04-20T10:23:44.905Z,21.20
2019-04-20T10:27:51.542Z,21.60
2019-04-20T10:31:59.246Z,20.50
2019-04-20T10:36:05.714Z,20.30
2019-04-20T10:40:11.609Z,21.40
2019-04-20T10:44:17.276Z,21.90
2019-04-20T10:48:23.519Z,22.10
2019-04-20T10:52:29.777Z,22.40
2019-04-20T10:56:35.381Z,22.60
2019-04-20T11:00:43.844Z,22.60
2019-04-20T11:04:50.635Z,21.50
2019-04-20T11:08:56.396Z,22.00
2019-04-20T11:13:03.196Z,22.90
2019-04-20T11:17:09.641Z,23.10
2019-04-20T11:21:15.451Z,22.70
2019-04-20T11:25:22.103Z,22.50
2019-04-20T11:29:28.455Z,21.60
2019-04-20T11:33:34.301Z,23.10
2019-04-20T11:37:39.902Z,24.00
2019-04-20T11:41:45.774Z,23.80
2019-04-20T11:45:51.761Z,23.70
2019-04-20T11:49:57.618Z,24.20
2019-04-20T11:54:04.230Z,23.20
2019-04-20T11:58:10.119Z,23.60
2019-04-20T12:02:34.949Z,23.90
2019-04-20T12:06:36.910Z,22.10
2019-04-20T12:10:43.772Z,21.20
2019-04-20T12:14:50.563Z,23.20
2019-04-20T12:18:56.781Z,24.90
2019-04-20T12:23:02.593Z,25.30
2019-04-20T12:27:08.865Z,25.80
2019-04-20T12:31:29.482Z,24.40
2019-04-20T12:35:36.114Z,24.70
2019-04-20T12:39:53.294Z,25.70
2019-04-20T12:44:01.705Z,24.60
2019-04-20T12:48:08.172Z,26.10
2019-04-20T12:52:14.446Z,26.60
2019-04-20T12:56:22.318Z,27.00
2019-04-20T13:00:43.604Z,25.00
2019-04-20T13:04:51.179Z,26.20
2019-04-20T13:09:00.300Z,26.40
2019-04-20T13:13:36.548Z,26.50
2019-04-20T13:17:42.340Z,23.90
2019-04-20T13:21:49.203Z,22.70
2019-04-20T13:25:55.019Z,22.80
2019-04-20T13:30:00.888Z,26.60
2019-04-20T13:34:07.584Z,26.60
2019-04-20T13:38:14.183Z,27.70
2019-04-20T13:42:24.801Z,26.60
2019-04-20T13:46:27.257Z,26.30
2019-04-20T13:50:33.888Z,28.00
2019-04-20T13:54:40.055Z,28.30
2019-04-20T13:59:01.835Z,28.20
2019-04-20T14:03:09.014Z,28.70
2019-04-20T14:07:17.025Z,28.30
2019-04-20T14:11:23.189Z,27.30
2019-04-20T14:15:29.150Z,26.90
2019-04-20T14:19:34.887Z,28.00
2019-04-20T14:23:41.140Z,27.80
2019-04-20T14:27:47.095Z,27.80
2019-04-20T14:31:52.675Z,26.00
2019-04-20T14:35:59.057Z,26.80
2019-04-20T14:40:06.155Z,28.70
2019-04-20T14:44:12.155Z,29.00
2019-04-20T14:48:18.566Z,27.20
2019-04-20T14:52:25.783Z,28.30
2019-04-20T14:56:31.740Z,28.20
2019-04-20T15:00:53.066Z,29.20
2019-04-20T15:04:59.061Z,29.10
2019-04-20T15:09:06.901Z,29.60
2019-04-20T15:13:14.890Z,28.70
2019-04-20T15:17:33.258Z,28.70
2019-04-20T15:21:39.725Z,28.40
2019-04-20T15:25:46.457Z,29.40
2019-04-20T15:29:52.144Z,29.20
2019-04-20T15:33:59.029Z,29.60
2019-04-20T15:38:05.108Z,27.80
2019-04-20T15:42:11.568Z,29.20
2019-04-20T15:46:17.357Z,29.50
2019-04-20T15:50:22.912Z,29.60
2019-04-20T15:54:29.614Z,29.20
2019-04-20T15:58:36.459Z,23.30
2019-04-20T16:03:07.391Z,26.00
2019-04-20T16:07:15.065Z,27.90
2019-04-20T16:11:21.520Z,29.10
2019-04-20T16:15:27.563Z,29.20
2019-04-20T16:19:44.942Z,29.20
2019-04-20T16:24:18.974Z,28.70
2019-04-20T16:28:25.671Z,29.00
2019-04-20T16:32:32.363Z,28.50
2019-04-20T16:36:39.142Z,28.70
2019-04-20T16:40:46.212Z,28.60
2019-04-20T16:44:53.467Z,28.60
2019-04-20T16:48:59.425Z,28.40
2019-04-20T16:53:06.709Z,28.10
2019-04-20T16:57:13.105Z,27.40
2019-04-20T17:01:21.364Z,24.70
2019-04-20T17:05:27.630Z,23.60
2019-04-20T17:09:33.807Z,26.30
2019-04-20T17:13:47.476Z,26.30
2019-04-20T17:17:49.547Z,25.40
2019-04-20T17:21:57.107Z,26.10
2019-04-20T17:26:03.994Z,27.00
2019-04-20T17:30:29.432Z,27.10
2019-04-20T17:34:46.814Z,27.10
2019-04-20T17:38:48.500Z,27.00
2019-04-20T17:43:00.011Z,26.90
2019-04-20T17:47:09.661Z,26.80
2019-04-20T17:51:28.716Z,26.60
2019-04-20T17:55:30.211Z,26.40
2019-04-20T17:59:30.415Z,26.30
2019-04-20T18:04:10.812Z,26.20
2019-04-20T18:08:15.470Z,26.00
2019-04-20T18:12:04.787Z,25.90
2019-04-20T18:16:36.837Z,25.80
2019-04-20T18:20:34.706Z,25.60
2019-04-20T18:25:01.861Z,25.50
2019-04-20T18:29:26.228Z,25.30
2019-04-20T18:32:55.720Z,25.20
2019-04-20T18:37:07.651Z,25.10
2019-04-20T18:41:23.077Z,24.90
2019-04-20T18:45:33.767Z,24.70
2019-04-20T18:49:38.498Z,24.60
2019-04-20T18:53:39.233Z,24.40
2019-04-20T18:57:48.934Z,24.30
2019-04-20T19:01:50.906Z,24.10
2019-04-20T19:05:57.934Z,24.00
2019-04-20T19:10:13.888Z,23.90
2019-04-20T19:14:40.893Z,23.70
2019-04-20T19:19:00.621Z,23.50
2019-04-20T19:22:58.071Z,23.40
2019-04-20T19:27:10.203Z,23.30
2019-04-20T19:31:30.853Z,23.10
2019-04-20T19:35:33.651Z,23.00
2019-04-20T19:39:45.993Z,22.80
2019-04-20T19:43:48.399Z,22.70
2019-04-20T19:48:01.931Z,22.60
2019-04-20T19:52:27.235Z,22.40
2019-04-20T19:56:10.725Z,22.30
2019-04-20T20:00:10.139Z,22.10
2019-04-20T20:04:17.579Z,22.00
2019-04-20T20:08:26.009Z,21.90
2019-04-20T20:12:31.563Z,21.80
2019-04-20T20:16:55.993Z,21.60
2019-04-20T20:21:00.852Z,21.50
2019-04-20T20:24:52.565Z,21.40
2019-04-20T20:29:10.942Z,21.30
2019-04-20T20:33:22.114Z,21.20
2019-04-20T20:37:25.414Z,21.10
2019-04-20T20:41:28.975Z,21.00
2019-04-20T20:45:38.417Z,20.80
2019-04-20T20:50:05.878Z,20.70
2019-04-20T20:53:56.512Z,20.60
2019-04-20T20:58:01.777Z,20.50
2019-04-20T21:02:08.873Z,20.40
2019-04-20T21:06:11.663Z,20.30
2019-04-20T21:10:25.657Z,20.20
2019-04-20T21:14:29.247Z,20.00
2019-04-20T21:18:50.346Z,19.90
2019-04-20T21:22:54.807Z,19.80
2019-04-20T21:26:49.581Z,19.70
2019-04-20T21:30:58.741Z,19.60
2019-04-20T21:35:08.507Z,19.50
2019-04-20T21:39:20.696Z,19.40
2019-04-20T21:43:20.703Z,19.10
2019-04-20T21:47:31.492Z,19.20
2019-04-20T21:51:44.553Z,18.20
2019-04-20T21:55:43.723Z,18.80
2019-04-20T21:59:54.262Z,18.90
2019-04-20T22:03:58.733Z,18.80
2019-04-20T22:08:07.912Z,18.70
2019-04-20T22:12:12.036Z,18.70
2019-04-20T22:16:18.956Z,18.60
2019-04-20T22:20:33.474Z,18.50
2019-04-20T22:24:46.525Z,18.30
2019-04-20T22:28:40.341Z,18.30
2019-04-20T22:32:49.947Z,18.20
2019-04-20T22:36:55.858Z,18.10
2019-04-20T22:41:07.732Z,18.00
2019-04-20T22:45:13.346Z,17.90
2019-04-20T22:49:33.417Z,17.80
2019-04-20T22:53:36.392Z,17.70
2019-04-20T22:57:47.332Z,17.60
2019-04-20T23:01:45.741Z,17.50
2019-04-20T23:05:47.113Z,17.50
2019-04-20T23:09:56.442Z,17.40
2019-04-20T23:14:00.521Z,17.30
2019-04-20T23:18:06.376Z,17.20
2019-04-20T23:22:13.990Z,17.20
2019-04-20T23:26:25.524Z,17.10
2019-04-20T23:30:31.443Z,17.00
2019-04-20T23:34:36.055Z,16.90
2019-04-20T23:38:44.329Z,16.80
2019-04-20T23:42:55.823Z,16.80
2019-04-20T23:47:13.741Z,16.70
2019-04-20T23:51:39.058Z,16.60
2019-04-20T23:55:23.889Z,16.60
2019-04-20T23:59:35.371Z,16.50
